Airfield :
LOGIN :

Register | Disclaimer

   EN    FR    IT 

 










Legend :    VFR   Marginal VFR   IFR   Intensive IFR   Very Intensive IFR
Visi :
Ceiling :
>= 8 km
>= 3000ft
5 to 8 km
1000 to 3000 ft
1500m to 5 km
500 to 1000 ft
800 to 1500m
200 to 500 ft
< 800m
< 200 ft
Symbols :   Thunderstorms  Fog  Heavy snow  Heavy precipitations  Wind > 20 kt
SIGMETs :     Misc.  Thunderstorms  Icing  Turbulence  Mountain Waves  Volcanic Ashes







- Airport Elevation : 22 ft
- IATA code : TUN


DTTA - Tunis Carthage

CURRENT METAR :
  • 280030Z 26006KT 230V290 9999 FEW033 24/18 Q1015 NOSIG

EXPIRED METARs :
  • 280000Z 27007KT 210V310 9999 FEW033 25/18 Q1015 NOSIG
  • 272330Z 29005KT 250V320 9999 FEW033 24/17 Q1015 NOSIG
  • 272300Z 28009KT 9999 FEW033 25/17 Q1015 NOSIG
  • 272230Z 27009KT 9999 FEW033 25/18 Q1016 NOSIG
  • 272200Z 27006KT 230V310 9999 FEW033 25/17 Q1016 NOSIG
  • 272130Z 28008KT 250V310 9999 FEW033 25/17 Q1015 NOSIG

TAF TAF DTTA
Valid from the 28 at 00:00 until the 29 at 00:00 UTC


272300Z 2800/2824 25008KT 9999 FEW033
BECMG 2809/2811 02010KT
BECMG 2818/2820 VRB03KT
No reported NOTAMs for that airfield.



MET'MAP, your aeronautical weather chart ! - Copyright ORBIFLY December 2007 - Disclaimer

ORBIFLY MET'MAP TEAM :

Programming & Development : Alexandra Zaïnal
Concept & Development : Baudouin d'Aumeries
Co-Development & Prog : Marc-Olivier Méhu
Technical & hardware support : Manuel Goepfert

Contact : metmap@orbifly.com




SOURCES & CREDITS :

   NOAA